createdAt,value
2019-05-13T00:00:19.574Z,0.00
2019-05-13T00:01:19.480Z,0.00
2019-05-13T00:02:19.389Z,0.00
2019-05-13T00:03:19.324Z,0.00
2019-05-13T00:04:19.225Z,0.00
2019-05-13T00:05:19.142Z,0.00
2019-05-13T00:06:19.061Z,0.00
2019-05-13T00:07:18.975Z,0.00
2019-05-13T00:08:21.628Z,0.00
2019-05-13T00:09:18.812Z,0.00
2019-05-13T00:10:18.725Z,0.00
2019-05-13T00:11:18.651Z,0.00
2019-05-13T00:12:18.576Z,0.00
2019-05-13T00:13:18.487Z,0.00
2019-05-13T00:14:18.407Z,0.00
2019-05-13T00:15:18.313Z,0.00
2019-05-13T00:16:18.237Z,0.00
2019-05-13T00:17:18.151Z,0.00
2019-05-13T00:18:18.075Z,0.00
2019-05-13T00:19:17.988Z,0.00
2019-05-13T00:20:17.905Z,0.00
2019-05-13T00:21:17.825Z,0.00
2019-05-13T00:22:17.738Z,0.00
2019-05-13T00:23:17.652Z,0.00
2019-05-13T00:24:17.577Z,0.00
2019-05-13T00:25:17.488Z,0.00
2019-05-13T00:26:17.409Z,0.00
2019-05-13T00:27:17.329Z,0.00
2019-05-13T00:28:17.240Z,0.00
2019-05-13T00:29:17.178Z,0.00
2019-05-13T00:30:17.078Z,0.00
2019-05-13T00:31:16.989Z,0.00
2019-05-13T00:32:16.915Z,0.00
2019-05-13T00:33:16.827Z,0.00
2019-05-13T00:34:16.740Z,0.00
2019-05-13T00:35:16.667Z,0.00
2019-05-13T00:36:16.578Z,0.00
2019-05-13T00:37:16.493Z,0.00
2019-05-13T00:38:16.415Z,0.00
2019-05-13T00:39:16.327Z,0.00
2019-05-13T00:40:16.254Z,0.00
2019-05-13T00:41:16.178Z,0.00
2019-05-13T00:42:16.079Z,0.00
2019-05-13T00:43:16.012Z,0.00
2019-05-13T00:44:15.917Z,0.00
2019-05-13T00:45:15.829Z,0.00
2019-05-13T00:46:15.754Z,0.00
2019-05-13T00:47:15.679Z,0.00
2019-05-13T00:48:15.591Z,0.00
2019-05-13T00:49:15.508Z,0.00
2019-05-13T00:50:15.417Z,0.00
2019-05-13T00:51:15.342Z,0.00
2019-05-13T00:52:15.258Z,0.00
2019-05-13T00:53:15.180Z,0.00
2019-05-13T00:54:15.092Z,0.00
2019-05-13T00:55:15.051Z,0.00
2019-05-13T00:56:14.919Z,0.00
2019-05-13T00:57:14.842Z,0.00
2019-05-13T00:58:14.760Z,0.00
2019-05-13T00:59:14.682Z,0.00
2019-05-13T01:00:14.596Z,0.00
2019-05-13T01:01:14.510Z,0.00
2019-05-13T01:02:14.434Z,0.00
2019-05-13T01:03:14.420Z,0.00
2019-05-13T01:04:14.463Z,0.00
2019-05-13T01:05:14.626Z,0.00
2019-05-13T01:06:14.100Z,0.00
2019-05-13T01:07:25.149Z,0.00
2019-05-13T01:08:14.611Z,0.00
2019-05-13T01:09:14.418Z,0.00
2019-05-13T01:10:13.771Z,0.00
2019-05-13T01:11:13.684Z,0.00
2019-05-13T01:12:13.609Z,0.00
2019-05-13T01:13:13.734Z,0.00
2019-05-13T01:14:14.398Z,0.00
2019-05-13T01:15:13.635Z,0.00
2019-05-13T01:16:14.041Z,0.00
2019-05-13T01:17:14.148Z,0.00
2019-05-13T01:18:14.322Z,0.00
2019-05-13T01:19:14.315Z,0.00
2019-05-13T01:20:14.445Z,0.00
2019-05-13T01:21:13.304Z,0.00
2019-05-13T01:22:13.499Z,0.00
2019-05-13T01:23:14.133Z,0.00
2019-05-13T01:24:14.448Z,0.00
2019-05-13T01:25:14.473Z,0.00
2019-05-13T01:26:14.179Z,0.00
2019-05-13T01:27:13.982Z,0.00
2019-05-13T01:28:13.487Z,0.00
2019-05-13T01:29:13.511Z,0.00
2019-05-13T01:30:13.342Z,0.00
2019-05-13T01:31:13.237Z,0.00
2019-05-13T01:32:14.279Z,0.00
2019-05-13T01:33:14.198Z,0.00
2019-05-13T01:34:14.083Z,0.00
2019-05-13T01:35:11.696Z,0.00
2019-05-13T01:36:13.412Z,0.00
2019-05-13T01:37:13.152Z,0.00
2019-05-13T01:38:13.334Z,0.00
2019-05-13T01:39:13.711Z,0.00
2019-05-13T01:40:13.442Z,0.00
2019-05-13T01:41:13.480Z,0.00
2019-05-13T01:42:11.113Z,0.00
2019-05-13T01:43:11.024Z,0.00
2019-05-13T01:44:10.953Z,0.00
2019-05-13T01:45:10.862Z,0.00
2019-05-13T01:46:10.774Z,0.00
2019-05-13T01:47:10.688Z,0.00
2019-05-13T01:48:10.614Z,0.00
2019-05-13T01:49:10.533Z,0.00
2019-05-13T01:50:10.450Z,0.00
2019-05-13T01:51:10.364Z,0.00
2019-05-13T01:52:10.292Z,0.00
2019-05-13T01:53:10.200Z,0.00
2019-05-13T01:54:10.114Z,0.00
2019-05-13T01:55:10.025Z,0.00
2019-05-13T01:56:09.951Z,0.00
2019-05-13T01:57:09.863Z,0.00
2019-05-13T01:58:09.777Z,0.00
2019-05-13T01:59:09.700Z,0.00
2019-05-13T02:00:09.615Z,0.00
2019-05-13T02:01:09.527Z,0.00
2019-05-13T02:02:09.451Z,0.00
2019-05-13T02:03:09.365Z,0.00
2019-05-13T02:04:09.276Z,0.00
2019-05-13T02:05:09.202Z,0.00
2019-05-13T02:06:09.115Z,0.00
2019-05-13T02:07:09.028Z,0.00
2019-05-13T02:08:08.951Z,0.00
2019-05-13T02:09:08.865Z,0.00
2019-05-13T02:10:08.777Z,0.00
2019-05-13T02:11:08.701Z,0.00
2019-05-13T02:12:08.615Z,0.00
2019-05-13T02:13:08.527Z,0.00
2019-05-13T02:14:08.455Z,0.00
2019-05-13T02:15:08.365Z,0.00
2019-05-13T02:16:08.279Z,0.00
2019-05-13T02:17:08.203Z,0.00
2019-05-13T02:18:08.116Z,0.00
2019-05-13T02:19:08.030Z,0.00
2019-05-13T02:20:07.952Z,0.00
2019-05-13T02:21:07.866Z,0.00
2019-05-13T02:22:07.778Z,0.00
2019-05-13T02:23:07.704Z,0.00
2019-05-13T02:24:07.616Z,0.00
2019-05-13T02:25:07.540Z,0.00
2019-05-13T02:26:07.452Z,0.00
2019-05-13T02:27:07.371Z,0.00
2019-05-13T02:28:10.158Z,0.00
2019-05-13T02:29:07.203Z,0.00
2019-05-13T02:30:07.117Z,0.00
2019-05-13T02:31:07.043Z,0.00
2019-05-13T02:32:06.961Z,0.00
2019-05-13T02:33:06.868Z,0.00
2019-05-13T02:34:06.779Z,0.00
2019-05-13T02:35:06.729Z,0.00
2019-05-13T02:36:06.618Z,0.00
2019-05-13T02:37:06.530Z,0.00
2019-05-13T02:38:19.785Z,0.00
2019-05-13T02:39:06.371Z,0.00
2019-05-13T02:40:06.280Z,0.00
2019-05-13T02:41:06.194Z,0.00
2019-05-13T02:42:06.119Z,0.00
2019-05-13T02:43:06.033Z,4.00
2019-05-13T02:44:05.944Z,4.00
2019-05-13T02:45:05.871Z,4.00
2019-05-13T02:46:05.781Z,0.00
2019-05-13T02:47:05.693Z,4.00
2019-05-13T02:48:05.622Z,4.00
2019-05-13T02:49:05.534Z,8.00
2019-05-13T02:50:05.558Z,4.00
2019-05-13T02:51:05.382Z,8.00
2019-05-13T02:52:05.281Z,4.00
2019-05-13T02:53:05.198Z,8.00
2019-05-13T02:54:05.130Z,8.00
2019-05-13T02:55:05.032Z,12.00
2019-05-13T02:56:04.962Z,12.00
2019-05-13T02:57:04.869Z,16.00
2019-05-13T02:58:04.782Z,16.00
2019-05-13T02:59:04.702Z,16.00
2019-05-13T03:00:04.657Z,20.00
2019-05-13T03:01:04.550Z,24.00
2019-05-13T03:02:04.537Z,28.00
2019-05-13T03:03:04.360Z,28.00
2019-05-13T03:04:04.285Z,32.00
2019-05-13T03:05:04.197Z,36.00
2019-05-13T03:06:04.121Z,44.00
2019-05-13T03:07:04.039Z,48.00
2019-05-13T03:08:03.964Z,52.00
2019-05-13T03:09:03.858Z,56.00
2019-05-13T03:10:04.430Z,64.00
2019-05-13T03:11:03.697Z,68.00
2019-05-13T03:12:04.268Z,76.00
2019-05-13T03:13:03.810Z,80.00
2019-05-13T03:14:03.857Z,88.00
2019-05-13T03:15:03.359Z,96.00
2019-05-13T03:16:03.373Z,104.00
2019-05-13T03:17:03.539Z,112.00
2019-05-13T03:18:03.550Z,120.00
2019-05-13T03:19:03.146Z,132.00
2019-05-13T03:20:04.077Z,144.00
2019-05-13T03:21:03.397Z,152.00
2019-05-13T03:22:03.249Z,164.00
2019-05-13T03:23:03.248Z,176.00
2019-05-13T03:24:03.440Z,188.00
2019-05-13T03:25:03.370Z,200.00
2019-05-13T03:26:03.109Z,212.00
2019-05-13T03:27:02.728Z,228.00
2019-05-13T03:28:03.118Z,240.00
2019-05-13T03:29:02.777Z,252.00
2019-05-13T03:30:04.255Z,264.00
2019-05-13T03:31:06.667Z,280.00
2019-05-13T03:32:06.338Z,292.00
2019-05-13T03:33:09.744Z,308.00
2019-05-13T03:34:06.349Z,324.00
2019-05-13T03:35:07.148Z,336.00
2019-05-13T03:36:06.943Z,352.00
2019-05-13T03:37:06.447Z,368.00
2019-05-13T03:38:03.344Z,376.00
2019-05-13T03:39:06.939Z,396.00
2019-05-13T03:40:03.321Z,408.00
2019-05-13T03:41:03.237Z,424.00
2019-05-13T03:42:02.921Z,436.00
2019-05-13T03:43:02.832Z,456.00
2019-05-13T03:44:02.573Z,468.00
2019-05-13T03:45:02.958Z,484.00
2019-05-13T03:46:03.373Z,500.00
2019-05-13T03:47:03.444Z,512.00
2019-05-13T03:48:03.763Z,528.00
2019-05-13T03:49:02.393Z,544.00
2019-05-13T03:50:03.557Z,556.00
2019-05-13T03:51:02.735Z,572.00
2019-05-13T03:52:03.035Z,584.00
2019-05-13T03:53:03.081Z,596.00
2019-05-13T03:54:03.166Z,612.00
2019-05-13T03:55:02.878Z,628.00
2019-05-13T03:56:02.431Z,640.00
2019-05-13T03:57:03.163Z,656.00
2019-05-13T03:58:02.562Z,668.00
2019-05-13T03:59:02.486Z,684.00
2019-05-13T04:00:03.225Z,696.00
2019-05-13T04:01:02.486Z,712.00
2019-05-13T04:02:02.301Z,724.00
2019-05-13T04:03:02.961Z,740.00
2019-05-13T04:03:59.262Z,748.00
2019-05-13T04:05:03.547Z,764.00
2019-05-13T04:06:03.044Z,776.00
2019-05-13T04:07:02.272Z,788.00
2019-05-13T04:07:58.938Z,808.00
2019-05-13T04:09:17.208Z,820.00
2019-05-13T04:09:58.770Z,832.00
2019-05-13T04:10:58.683Z,848.00
2019-05-13T04:11:58.611Z,860.00
2019-05-13T04:12:58.519Z,872.00
2019-05-13T04:13:58.428Z,888.00
2019-05-13T04:14:58.352Z,896.00
2019-05-13T04:15:58.265Z,908.00
2019-05-13T04:16:58.177Z,924.00
2019-05-13T04:17:58.106Z,940.00
2019-05-13T04:18:58.014Z,948.00
2019-05-13T04:19:57.930Z,968.00
2019-05-13T04:20:57.845Z,980.00
2019-05-13T04:21:57.769Z,1000.00
2019-05-13T04:22:57.679Z,1020.00
2019-05-13T04:23:57.591Z,1040.00
2019-05-13T04:24:57.516Z,1052.00
2019-05-13T04:25:57.428Z,1084.00
2019-05-13T04:26:57.342Z,1120.00
2019-05-13T04:27:57.266Z,1148.00
2019-05-13T04:28:57.186Z,1148.00
2019-05-13T04:29:57.094Z,1168.00
2019-05-13T04:30:57.016Z,1204.00
2019-05-13T04:31:56.930Z,1248.00
2019-05-13T04:32:56.843Z,1340.00
2019-05-13T04:33:56.756Z,1484.00
2019-05-13T04:34:56.680Z,1576.00
2019-05-13T04:35:56.593Z,1692.00
2019-05-13T04:36:56.505Z,1720.00
2019-05-13T04:37:56.433Z,1664.00
2019-05-13T04:38:56.343Z,1588.00
2019-05-13T04:39:56.691Z,1512.00
2019-05-13T04:40:56.189Z,1464.00
2019-05-13T04:41:56.093Z,1436.00
2019-05-13T04:42:56.020Z,1460.00
2019-05-13T04:43:55.953Z,1524.00
2019-05-13T04:44:55.844Z,1488.00
2019-05-13T04:45:55.756Z,1480.00
2019-05-13T04:46:55.682Z,1472.00
2019-05-13T04:47:55.593Z,1464.00
2019-05-13T04:48:55.509Z,1476.00
2019-05-13T04:49:55.436Z,1488.00
2019-05-13T04:50:55.350Z,1492.00
2019-05-13T04:51:55.257Z,1508.00
2019-05-13T04:52:55.184Z,1512.00
2019-05-13T04:53:57.307Z,1512.00
2019-05-13T04:54:55.021Z,1520.00
2019-05-13T04:55:54.937Z,1536.00
2019-05-13T04:56:54.845Z,1556.00
2019-05-13T04:57:54.758Z,1576.00
2019-05-13T04:58:54.682Z,1592.00
2019-05-13T04:59:55.249Z,1612.00
2019-05-13T05:01:02.047Z,1616.00
2019-05-13T05:01:59.088Z,1628.00
2019-05-13T05:02:55.322Z,1644.00
2019-05-13T05:03:54.258Z,1656.00
2019-05-13T05:04:54.187Z,1688.00
2019-05-13T05:05:54.095Z,1712.00
2019-05-13T05:06:54.008Z,1676.00
2019-05-13T05:07:53.934Z,1672.00
2019-05-13T05:08:53.846Z,1672.00
2019-05-13T05:10:16.750Z,1684.00
2019-05-13T05:10:54.123Z,1700.00
2019-05-13T05:11:53.608Z,1712.00
2019-05-13T05:12:53.524Z,1712.00
2019-05-13T05:13:56.559Z,1728.00
2019-05-13T05:14:53.346Z,1748.00
2019-05-13T05:15:53.271Z,1796.00
2019-05-13T05:16:53.185Z,1836.00
2019-05-13T05:17:53.097Z,1840.00
2019-05-13T05:18:53.026Z,1812.00
2019-05-13T05:19:52.935Z,1884.00
2019-05-13T05:20:52.848Z,2168.00
2019-05-13T05:21:55.243Z,2108.00
2019-05-13T05:22:52.687Z,1900.00
2019-05-13T05:23:52.610Z,1868.00
2019-05-13T05:24:52.522Z,1872.00
2019-05-13T05:25:52.435Z,1860.00
2019-05-13T05:26:52.360Z,1880.00
2019-05-13T05:27:52.273Z,1888.00
2019-05-13T05:28:52.185Z,1916.00
2019-05-13T05:29:52.112Z,1908.00
2019-05-13T05:30:52.031Z,2008.00
2019-05-13T05:31:52.015Z,1988.00
2019-05-13T05:32:51.989Z,2012.00
2019-05-13T05:33:51.775Z,1972.00
2019-05-13T05:34:51.948Z,2020.00
2019-05-13T05:35:52.071Z,1976.00
2019-05-13T05:36:52.030Z,2128.00
2019-05-13T05:37:52.209Z,2004.00
2019-05-13T05:38:51.530Z,2000.00
2019-05-13T05:39:51.314Z,2016.00
2019-05-13T05:40:51.200Z,2032.00
2019-05-13T05:41:51.411Z,2100.00
2019-05-13T05:42:51.758Z,2144.00
2019-05-13T05:43:52.182Z,2208.00
2019-05-13T05:44:51.827Z,2296.00
2019-05-13T05:45:51.258Z,2036.00
2019-05-13T05:46:51.540Z,2056.00
2019-05-13T05:47:51.097Z,2004.00
2019-05-13T05:48:52.814Z,2028.00
2019-05-13T05:49:51.593Z,2048.00
2019-05-13T05:50:51.583Z,2016.00
2019-05-13T05:51:51.482Z,2044.00
2019-05-13T05:52:51.378Z,2052.00
2019-05-13T05:53:51.650Z,2072.00
2019-05-13T05:54:51.598Z,2096.00
2019-05-13T05:55:51.765Z,2088.00
2019-05-13T05:56:51.818Z,2084.00
2019-05-13T05:57:52.122Z,2100.00
2019-05-13T05:58:52.269Z,2128.00
2019-05-13T05:59:51.085Z,2324.00
2019-05-13T06:00:51.947Z,2288.00
2019-05-13T06:01:52.344Z,2100.00
2019-05-13T06:02:49.391Z,2112.00
2019-05-13T06:03:49.301Z,2132.00
2019-05-13T06:04:51.430Z,2124.00
2019-05-13T06:05:51.137Z,2152.00
2019-05-13T06:06:49.054Z,2156.00
2019-05-13T06:07:51.324Z,2164.00
2019-05-13T06:08:48.890Z,2156.00
2019-05-13T06:09:48.814Z,2164.00
2019-05-13T06:10:51.288Z,2172.00
2019-05-13T06:11:48.639Z,2180.00
2019-05-13T06:12:48.565Z,2204.00
2019-05-13T06:13:51.329Z,2224.00
2019-05-13T06:14:48.403Z,2268.00
2019-05-13T06:15:48.322Z,2260.00
2019-05-13T06:16:48.229Z,2284.00
2019-05-13T06:17:48.153Z,2296.00
2019-05-13T06:18:48.066Z,2308.00
2019-05-13T06:19:47.995Z,2316.00
2019-05-13T06:20:47.903Z,2340.00
2019-05-13T06:21:47.828Z,2376.00
2019-05-13T06:22:47.742Z,2396.00
2019-05-13T06:23:47.654Z,2404.00
2019-05-13T06:24:47.579Z,2424.00
2019-05-13T06:25:47.498Z,2412.00
2019-05-13T06:26:47.416Z,2408.00
2019-05-13T06:27:47.329Z,2436.00
2019-05-13T06:28:47.242Z,2468.00
2019-05-13T06:29:49.169Z,2500.00
2019-05-13T06:30:47.080Z,2520.00
2019-05-13T06:31:47.004Z,2512.00
2019-05-13T06:32:46.917Z,2528.00
2019-05-13T06:33:46.843Z,2524.00
2019-05-13T06:34:46.755Z,2536.00
2019-05-13T06:35:46.668Z,2552.00
2019-05-13T06:36:46.595Z,2556.00
2019-05-13T06:37:46.505Z,2576.00
2019-05-13T06:38:46.436Z,2600.00
2019-05-13T06:39:46.345Z,2632.00
2019-05-13T06:40:59.432Z,2640.00
2019-05-13T06:41:46.181Z,2676.00
2019-05-13T06:42:46.106Z,2748.00
2019-05-13T06:43:46.020Z,2792.00
2019-05-13T06:44:45.936Z,2748.00
2019-05-13T06:45:45.856Z,2724.00
2019-05-13T06:46:45.769Z,2764.00
2019-05-13T06:47:45.694Z,2788.00
2019-05-13T06:48:45.606Z,2808.00
2019-05-13T06:49:45.531Z,2860.00
2019-05-13T06:50:45.445Z,2896.00
2019-05-13T06:51:45.380Z,2928.00
2019-05-13T06:52:45.321Z,3016.00
2019-05-13T06:53:45.207Z,3212.00
2019-05-13T06:54:45.120Z,3228.00
2019-05-13T06:55:45.032Z,3276.00
2019-05-13T06:56:44.957Z,3440.00
2019-05-13T06:57:44.871Z,3628.00
2019-05-13T06:58:44.796Z,3776.00
2019-05-13T06:59:44.721Z,3416.00
2019-05-13T07:00:44.633Z,3576.00
2019-05-13T07:01:44.553Z,3784.00
2019-05-13T07:02:44.478Z,3640.00
2019-05-13T07:03:44.393Z,3624.00
2019-05-13T07:04:44.321Z,3668.00
2019-05-13T07:05:44.224Z,3740.00
2019-05-13T07:06:44.149Z,3792.00
2019-05-13T07:07:44.059Z,3900.00
2019-05-13T07:08:43.984Z,4120.00
2019-05-13T07:09:43.897Z,4024.00
2019-05-13T07:10:43.810Z,4092.00
2019-05-13T07:11:43.787Z,4184.00
2019-05-13T07:12:43.659Z,4352.00
2019-05-13T07:13:43.575Z,7248.00
2019-05-13T07:14:43.485Z,11460.00
2019-05-13T07:15:43.413Z,24000.00
2019-05-13T07:16:43.348Z,31616.00
2019-05-13T07:17:43.249Z,33280.00
2019-05-13T07:18:43.161Z,21952.00
2019-05-13T07:19:43.085Z,28576.00
2019-05-13T07:20:43.011Z,18880.00
2019-05-13T07:21:42.924Z,21152.00
2019-05-13T07:22:42.849Z,32288.00
2019-05-13T07:23:42.761Z,27456.00
2019-05-13T07:24:42.685Z,10740.00
2019-05-13T07:25:42.601Z,8216.00
2019-05-13T07:26:42.526Z,11828.00
2019-05-13T07:27:42.586Z,48064.00
2019-05-13T07:28:42.898Z,98016.00
2019-05-13T07:29:42.467Z,108000.00
2019-05-13T07:30:42.567Z,114368.00
2019-05-13T07:31:42.279Z,112896.00
2019-05-13T07:32:42.223Z,107840.00
2019-05-13T07:33:42.630Z,116800.00
2019-05-13T07:34:43.933Z,111072.00
2019-05-13T07:35:44.368Z,96480.00
2019-05-13T07:36:42.278Z,90336.00
2019-05-13T07:37:42.367Z,90304.00
2019-05-13T07:38:41.690Z,83104.00
2019-05-13T07:39:41.989Z,71232.00
2019-05-13T07:40:41.927Z,63968.00
2019-05-13T07:41:42.961Z,62976.00
2019-05-13T07:42:41.895Z,58208.00
2019-05-13T07:43:42.616Z,44960.00
2019-05-13T07:44:41.661Z,42752.00
2019-05-13T07:45:42.357Z,44544.00
2019-05-13T07:46:42.636Z,39232.00
2019-05-13T07:47:41.684Z,32928.00
2019-05-13T07:48:41.635Z,30432.00
2019-05-13T07:49:41.993Z,28992.00
2019-05-13T07:50:55.604Z,27680.00
2019-05-13T07:51:42.073Z,19072.00
2019-05-13T07:52:42.108Z,11136.00
2019-05-13T07:53:42.408Z,8584.00
2019-05-13T07:54:41.998Z,7828.00
2019-05-13T07:55:42.136Z,7520.00
2019-05-13T07:56:42.405Z,7344.00
2019-05-13T07:57:42.211Z,7220.00
2019-05-13T07:58:41.847Z,7072.00
2019-05-13T07:59:41.757Z,6992.00
2019-05-13T08:00:41.871Z,6936.00
2019-05-13T08:01:41.731Z,6856.00
2019-05-13T08:02:41.709Z,6852.00
2019-05-13T08:03:41.998Z,6808.00
2019-05-13T08:04:41.887Z,6740.00
2019-05-13T08:05:41.670Z,6776.00
2019-05-13T08:06:41.466Z,6816.00
2019-05-13T08:07:39.341Z,6832.00
2019-05-13T08:08:41.492Z,6832.00
2019-05-13T08:09:41.692Z,6808.00
2019-05-13T08:10:41.298Z,6772.00
2019-05-13T08:11:58.196Z,6736.00
2019-05-13T08:12:41.160Z,6780.00
2019-05-13T08:13:38.891Z,6780.00
2019-05-13T08:14:43.270Z,6840.00
2019-05-13T08:15:38.756Z,6872.00
2019-05-13T08:16:38.667Z,6864.00
2019-05-13T08:17:44.606Z,6956.00
2019-05-13T08:18:38.517Z,7036.00
2019-05-13T08:19:38.442Z,7096.00
2019-05-13T08:20:38.367Z,7092.00
2019-05-13T08:21:38.305Z,7128.00
2019-05-13T08:22:38.217Z,7204.00
2019-05-13T08:23:38.155Z,7076.00
2019-05-13T08:24:38.080Z,7100.00
2019-05-13T08:25:38.007Z,7108.00
2019-05-13T08:26:43.253Z,7196.00
2019-05-13T08:27:37.856Z,7316.00
2019-05-13T08:28:52.676Z,7596.00
2019-05-13T08:29:37.706Z,7832.00
2019-05-13T08:30:37.631Z,8604.00
2019-05-13T08:31:37.556Z,9436.00
2019-05-13T08:32:37.481Z,10340.00
2019-05-13T08:33:37.419Z,10892.00
2019-05-13T08:34:37.343Z,10124.00
2019-05-13T08:35:37.268Z,9852.00
2019-05-13T08:36:39.594Z,4660.00
2019-05-13T08:37:37.121Z,9868.00
2019-05-13T08:38:37.053Z,9000.00
2019-05-13T08:39:38.537Z,8556.00
2019-05-13T08:40:36.907Z,2912.00
2019-05-13T08:41:36.833Z,8912.00
2019-05-13T08:42:36.758Z,9232.00
2019-05-13T08:43:36.682Z,10068.00
2019-05-13T08:44:36.610Z,11300.00
2019-05-13T08:45:36.547Z,12004.00
2019-05-13T08:46:36.470Z,11464.00
2019-05-13T08:47:36.395Z,11308.00
2019-05-13T08:48:36.320Z,11364.00
2019-05-13T08:49:36.246Z,12772.00
2019-05-13T08:50:36.171Z,14788.00
2019-05-13T08:51:36.102Z,17408.00
2019-05-13T08:52:36.041Z,17472.00
2019-05-13T08:53:35.964Z,9308.00
2019-05-13T08:54:35.883Z,7656.00
2019-05-13T08:55:35.809Z,7476.00
2019-05-13T08:56:35.747Z,5660.00
2019-05-13T08:57:35.671Z,6792.00
2019-05-13T08:58:35.596Z,7432.00
2019-05-13T08:59:35.524Z,8160.00
2019-05-13T09:00:35.460Z,16992.00
2019-05-13T09:01:35.389Z,17696.00
2019-05-13T09:02:35.311Z,17952.00
2019-05-13T09:03:35.235Z,17632.00
2019-05-13T09:04:35.160Z,17024.00
2019-05-13T09:05:35.086Z,15260.00
2019-05-13T09:06:35.011Z,15008.00
2019-05-13T09:07:34.937Z,6740.00
2019-05-13T09:08:34.873Z,6688.00
2019-05-13T09:09:34.799Z,8148.00
2019-05-13T09:10:34.723Z,16640.00
2019-05-13T09:11:34.647Z,16768.00
2019-05-13T09:12:37.091Z,17824.00
2019-05-13T09:13:34.497Z,19008.00
2019-05-13T09:14:34.423Z,20192.00
2019-05-13T09:15:34.356Z,20416.00
2019-05-13T09:16:34.301Z,17472.00
2019-05-13T09:17:34.212Z,8224.00
2019-05-13T09:18:34.146Z,7800.00
2019-05-13T09:19:34.062Z,8816.00
2019-05-13T09:20:33.993Z,8760.00
2019-05-13T09:21:33.925Z,8308.00
2019-05-13T09:22:33.863Z,8028.00
2019-05-13T09:23:33.775Z,19808.00
2019-05-13T09:24:37.623Z,4764.00
2019-05-13T09:25:33.626Z,18848.00
2019-05-13T09:26:33.563Z,19680.00
2019-05-13T09:27:33.488Z,21120.00
2019-05-13T09:28:33.414Z,25312.00
2019-05-13T09:29:33.340Z,29504.00
2019-05-13T09:30:33.267Z,25888.00
2019-05-13T09:31:33.199Z,24768.00
2019-05-13T09:32:33.126Z,20416.00
2019-05-13T09:33:33.051Z,6116.00
2019-05-13T09:34:33.143Z,7060.00
2019-05-13T09:35:32.904Z,8704.00
2019-05-13T09:36:32.826Z,10668.00
2019-05-13T09:37:32.778Z,13160.00
2019-05-13T09:38:32.879Z,14396.00
2019-05-13T09:39:32.685Z,19104.00
2019-05-13T09:40:32.539Z,20640.00
2019-05-13T09:41:38.434Z,9404.00
2019-05-13T09:42:47.089Z,8380.00
2019-05-13T09:43:32.316Z,7876.00
2019-05-13T09:44:32.873Z,7088.00
2019-05-13T09:45:32.287Z,6464.00
2019-05-13T09:46:32.094Z,5572.00
2019-05-13T09:47:32.279Z,5388.00
2019-05-13T09:48:32.170Z,6852.00
2019-05-13T09:49:32.834Z,8924.00
2019-05-13T09:50:35.343Z,13496.00
2019-05-13T09:51:32.350Z,12856.00
2019-05-13T09:52:32.009Z,14708.00
2019-05-13T09:53:32.543Z,12492.00
2019-05-13T09:54:32.757Z,12328.00
2019-05-13T09:55:32.537Z,12288.00
2019-05-13T09:56:31.895Z,12780.00
2019-05-13T09:57:32.122Z,11940.00
2019-05-13T09:58:33.046Z,12344.00
2019-05-13T09:59:31.815Z,12640.00
2019-05-13T10:00:32.315Z,13008.00
2019-05-13T10:01:31.995Z,14236.00
2019-05-13T10:02:32.045Z,14252.00
2019-05-13T10:03:33.092Z,13836.00
2019-05-13T10:04:31.825Z,14788.00
2019-05-13T10:05:31.670Z,12740.00
2019-05-13T10:06:32.736Z,10864.00
2019-05-13T10:07:31.822Z,8356.00
2019-05-13T10:08:32.619Z,7080.00
2019-05-13T10:09:32.585Z,5832.00
2019-05-13T10:10:31.903Z,6172.00
2019-05-13T10:11:30.205Z,7108.00
2019-05-13T10:12:31.945Z,8272.00
2019-05-13T10:13:31.737Z,9408.00
2019-05-13T10:14:32.347Z,10488.00
2019-05-13T10:15:32.335Z,11088.00
2019-05-13T10:16:31.402Z,11592.00
2019-05-13T10:17:31.754Z,12512.00
2019-05-13T10:18:32.276Z,13900.00
2019-05-13T10:19:31.588Z,15360.00
2019-05-13T10:20:31.723Z,16404.00
2019-05-13T10:21:29.431Z,16648.00
2019-05-13T10:22:31.779Z,15076.00
2019-05-13T10:23:29.282Z,12848.00
2019-05-13T10:24:29.194Z,9608.00
2019-05-13T10:25:29.121Z,6620.00
2019-05-13T10:26:31.405Z,5636.00
2019-05-13T10:27:28.972Z,5300.00
2019-05-13T10:28:28.883Z,5120.00
2019-05-13T10:29:31.086Z,4964.00
2019-05-13T10:30:28.745Z,5124.00
2019-05-13T10:31:28.657Z,5580.00
2019-05-13T10:32:28.581Z,5788.00
2019-05-13T10:33:28.496Z,6204.00
2019-05-13T10:34:28.420Z,6568.00
2019-05-13T10:35:28.349Z,5740.00
2019-05-13T10:36:28.270Z,5912.00
2019-05-13T10:37:28.184Z,8392.00
2019-05-13T10:38:28.188Z,13064.00
2019-05-13T10:39:28.032Z,10200.00
2019-05-13T10:40:27.958Z,16800.00
2019-05-13T10:41:27.871Z,24736.00
2019-05-13T10:42:27.796Z,24000.00
2019-05-13T10:43:31.734Z,8920.00
2019-05-13T10:44:27.651Z,9088.00
2019-05-13T10:45:27.560Z,32160.00
2019-05-13T10:46:27.484Z,10888.00
2019-05-13T10:47:27.424Z,27008.00
2019-05-13T10:48:27.333Z,34624.00
2019-05-13T10:49:27.260Z,7300.00
2019-05-13T10:50:27.665Z,37664.00
2019-05-13T10:51:27.097Z,40480.00
2019-05-13T10:52:27.022Z,42272.00
2019-05-13T10:53:26.948Z,42752.00
2019-05-13T10:54:26.872Z,28320.00
2019-05-13T10:55:26.801Z,41792.00
2019-05-13T10:56:26.724Z,41280.00
2019-05-13T10:57:26.653Z,38688.00
2019-05-13T10:58:26.573Z,43584.00
2019-05-13T10:59:26.499Z,10544.00
2019-05-13T11:00:26.429Z,9440.00
2019-05-13T11:01:26.349Z,8692.00
2019-05-13T11:02:26.274Z,6824.00
2019-05-13T11:03:26.200Z,6080.00
2019-05-13T11:04:26.153Z,6036.00
2019-05-13T11:05:26.052Z,5768.00
2019-05-13T11:06:25.974Z,4828.00
2019-05-13T11:07:25.899Z,4484.00
2019-05-13T11:08:25.824Z,9940.00
2019-05-13T11:09:25.751Z,17536.00
2019-05-13T11:10:25.677Z,41952.00
2019-05-13T11:11:25.599Z,42496.00
2019-05-13T11:12:28.504Z,44800.00
2019-05-13T11:13:25.452Z,47104.00
2019-05-13T11:14:25.378Z,48160.00
2019-05-13T11:15:25.316Z,48544.00
2019-05-13T11:16:25.224Z,50432.00
2019-05-13T11:17:30.947Z,53184.00
2019-05-13T11:18:25.078Z,53792.00
2019-05-13T11:19:25.000Z,56544.00
2019-05-13T11:20:24.926Z,63456.00
2019-05-13T11:21:24.851Z,62272.00
2019-05-13T11:22:24.804Z,31424.00
2019-05-13T11:23:24.700Z,24416.00
2019-05-13T11:24:24.639Z,21536.00
2019-05-13T11:25:24.563Z,68128.00
2019-05-13T11:26:24.488Z,68480.00
2019-05-13T11:27:24.412Z,68032.00
2019-05-13T11:28:24.351Z,51168.00
2019-05-13T11:29:24.277Z,15220.00
2019-05-13T11:30:24.201Z,11260.00
2019-05-13T11:31:24.138Z,12500.00
2019-05-13T11:32:24.063Z,12424.00
2019-05-13T11:33:23.989Z,13416.00
2019-05-13T11:34:23.915Z,14240.00
2019-05-13T11:35:23.852Z,16080.00
2019-05-13T11:36:23.864Z,16584.00
2019-05-13T11:37:23.702Z,23456.00
2019-05-13T11:38:23.639Z,43552.00
2019-05-13T11:39:23.564Z,16664.00
2019-05-13T11:40:23.489Z,21184.00
2019-05-13T11:41:23.427Z,100928.00
2019-05-13T11:42:23.339Z,102400.00
2019-05-13T11:43:27.880Z,41568.00
2019-05-13T11:44:23.191Z,93664.00
2019-05-13T11:45:23.128Z,56544.00
2019-05-13T11:46:23.054Z,105280.00
2019-05-13T11:47:22.982Z,107936.00
2019-05-13T11:48:23.569Z,105824.00
2019-05-13T11:49:22.828Z,102816.00
2019-05-13T11:50:22.754Z,100928.00
2019-05-13T11:51:24.135Z,99744.00
2019-05-13T11:52:22.828Z,96704.00
2019-05-13T11:53:37.796Z,96992.00
2019-05-13T11:54:22.558Z,97184.00
2019-05-13T11:55:23.036Z,96320.00
2019-05-13T11:56:22.964Z,97856.00
2019-05-13T11:57:22.256Z,98176.00
2019-05-13T11:58:22.191Z,100512.00
2019-05-13T11:59:22.246Z,104288.00
2019-05-13T12:00:22.054Z,105408.00
2019-05-13T12:01:22.951Z,106784.00
2019-05-13T12:02:23.160Z,109856.00
2019-05-13T12:04:23.992Z,11208.00
2019-05-13T12:05:22.598Z,9348.00
2019-05-13T12:06:23.323Z,114464.00
2019-05-13T12:07:23.243Z,114848.00
2019-05-13T12:08:22.686Z,112288.00
2019-05-13T12:09:22.242Z,31616.00
2019-05-13T12:10:22.791Z,110976.00
2019-05-13T12:11:22.408Z,112448.00
2019-05-13T12:12:22.604Z,116896.00
2019-05-13T12:13:23.292Z,120768.00
2019-05-13T12:14:43.636Z,119232.00
2019-05-13T12:15:30.722Z,123200.00
2019-05-13T12:16:22.730Z,122496.00
2019-05-13T12:17:22.505Z,123680.00
2019-05-13T12:18:23.557Z,118016.00